createdAt,value
2023-05-08T00:01:30.534Z,14.82
2023-05-08T00:03:57.614Z,15.88
2023-05-08T00:06:24.756Z,14.63
2023-05-08T00:08:51.486Z,15.93
2023-05-08T00:11:18.251Z,15.88
2023-05-08T00:13:45.220Z,14.70
2023-05-08T00:16:12.690Z,15.23
2023-05-08T00:18:40.109Z,15.85
2023-05-08T00:21:07.409Z,14.98
2023-05-08T00:23:34.580Z,16.02
2023-05-08T00:26:02.080Z,15.93
2023-05-08T00:28:29.220Z,14.25
2023-05-08T00:30:55.974Z,15.32
2023-05-08T00:33:22.885Z,15.98
2023-05-08T00:35:49.640Z,15.90
2023-05-08T00:38:16.593Z,13.63
2023-05-08T00:40:43.715Z,13.35
2023-05-08T00:43:10.589Z,15.20
2023-05-08T00:45:39.833Z,19.10
2023-05-08T00:48:07.787Z,14.50
2023-05-08T00:50:35.350Z,13.43
2023-05-08T00:53:04.145Z,14.88
2023-05-08T00:55:32.630Z,14.50
2023-05-08T00:57:59.925Z,15.13
2023-05-08T01:00:26.981Z,14.82
2023-05-08T01:02:54.042Z,13.70
2023-05-08T01:05:21.051Z,14.43
2023-05-08T01:07:48.662Z,14.90
2023-05-08T01:10:17.151Z,14.82
2023-05-08T01:12:44.032Z,15.02
2023-05-08T01:15:33.725Z,16.15
2023-05-08T01:18:16.310Z,14.00
2023-05-08T01:21:06.666Z,14.90
2023-05-08T01:23:51.425Z,17.20
2023-05-08T01:26:32.792Z,15.07
2023-05-08T01:29:33.907Z,13.35
2023-05-08T01:32:18.860Z,15.25
2023-05-08T01:35:20.900Z,14.25
2023-05-08T01:38:09.772Z,13.90
2023-05-08T01:40:56.761Z,14.60
2023-05-08T01:43:42.025Z,13.95
2023-05-08T01:46:14.585Z,15.68
2023-05-08T01:48:56.356Z,14.52
2023-05-08T01:54:04.553Z,14.88
2023-05-08T01:56:32.439Z,14.90
2023-05-08T01:59:02.585Z,14.98
2023-05-08T02:01:32.139Z,15.68
2023-05-08T02:04:00.945Z,16.02
2023-05-08T02:06:31.132Z,14.48
2023-05-08T02:08:59.456Z,16.00
2023-05-08T02:11:26.752Z,13.75
2023-05-08T02:13:54.435Z,13.27
2023-05-08T02:16:22.785Z,14.90
2023-05-08T02:18:53.779Z,14.13
2023-05-08T02:21:21.998Z,15.80
2023-05-08T02:23:50.502Z,14.02
2023-05-08T02:26:18.024Z,21.70
2023-05-08T02:28:46.061Z,14.23
2023-05-08T02:31:14.119Z,14.63
2023-05-08T02:33:42.425Z,13.20
2023-05-08T02:36:11.413Z,14.95
2023-05-08T02:38:39.776Z,15.80
2023-05-08T02:41:07.864Z,14.73
2023-05-08T02:43:35.687Z,13.07
2023-05-08T02:46:26.297Z,13.15
2023-05-08T02:49:04.721Z,16.20
2023-05-08T02:51:46.857Z,12.48
2023-05-08T02:54:44.282Z,14.35
2023-05-08T02:57:20.888Z,14.23
2023-05-08T03:00:00.785Z,15.30
2023-05-08T03:02:39.248Z,14.73
2023-05-08T03:05:30.464Z,15.43
2023-05-08T03:08:00.728Z,13.20
2023-05-08T03:10:32.997Z,12.75
2023-05-08T03:13:03.804Z,13.35
2023-05-08T03:15:42.228Z,14.63
2023-05-08T03:18:16.512Z,12.18
2023-05-08T03:20:46.475Z,13.82
2023-05-08T03:23:15.350Z,12.82
2023-05-08T03:25:43.708Z,13.18
2023-05-08T03:28:12.960Z,12.75
2023-05-08T03:30:41.684Z,12.70
2023-05-08T03:33:12.385Z,13.98
2023-05-08T03:35:40.018Z,13.43
2023-05-08T03:38:08.925Z,13.75
2023-05-08T03:40:36.945Z,14.55
2023-05-08T03:43:07.535Z,13.88
2023-05-08T03:45:36.837Z,14.32
2023-05-08T03:48:05.422Z,13.82
2023-05-08T03:50:35.733Z,13.80
2023-05-08T03:53:03.537Z,15.10
2023-05-08T03:55:31.614Z,15.32
2023-05-08T03:58:11.393Z,12.88
2023-05-08T04:00:53.689Z,14.40
2023-05-08T04:03:27.781Z,14.98
2023-05-08T04:06:08.172Z,13.60
2023-05-08T04:08:43.466Z,17.02
2023-05-08T04:11:19.863Z,15.55
2023-05-08T04:13:51.820Z,16.20
2023-05-08T04:16:27.827Z,13.98
2023-05-08T04:19:02.210Z,18.15
2023-05-08T04:21:32.480Z,15.35
2023-05-08T04:24:00.191Z,15.43
2023-05-08T04:26:29.176Z,16.40
2023-05-08T04:28:58.003Z,13.00
2023-05-08T04:31:25.798Z,15.18
2023-05-08T04:33:52.760Z,15.30
2023-05-08T04:36:19.498Z,14.25
2023-05-08T04:38:46.855Z,16.85
2023-05-08T04:41:15.919Z,13.45
2023-05-08T04:43:44.774Z,15.15
2023-05-08T04:46:13.280Z,14.82
2023-05-08T04:48:40.175Z,15.23
2023-05-08T04:51:07.035Z,13.82
2023-05-08T04:53:33.794Z,13.05
2023-05-08T04:56:01.273Z,13.60
2023-05-08T04:58:29.181Z,13.63
2023-05-08T05:00:56.366Z,13.25
2023-05-08T05:03:23.073Z,13.95
2023-05-08T05:05:56.888Z,14.48
2023-05-08T05:08:23.629Z,12.13
2023-05-08T05:10:50.316Z,12.32
2023-05-08T05:13:17.124Z,12.23
2023-05-08T05:15:44.017Z,12.15
2023-05-08T05:18:11.524Z,11.88
2023-05-08T05:20:38.730Z,13.30
2023-05-08T05:23:05.720Z,13.60
2023-05-08T05:25:32.823Z,11.68
2023-05-08T05:28:00.379Z,11.43
2023-05-08T05:30:27.234Z,12.52
2023-05-08T05:32:54.159Z,12.30
2023-05-08T05:35:20.868Z,12.35
2023-05-08T05:37:47.689Z,11.73
2023-05-08T05:40:15.191Z,13.90
2023-05-08T05:42:42.027Z,12.18
2023-05-08T05:45:10.113Z,13.32
2023-05-08T05:47:37.067Z,10.57
2023-05-08T05:50:05.638Z,11.35
2023-05-08T05:52:33.154Z,12.07
2023-05-08T05:55:00.198Z,10.98
2023-05-08T05:57:27.660Z,13.05
2023-05-08T05:59:54.939Z,12.07
2023-05-08T06:02:21.929Z,10.77
2023-05-08T06:04:50.089Z,11.32
2023-05-08T06:07:16.872Z,11.25
2023-05-08T06:09:43.640Z,12.18
2023-05-08T06:12:10.608Z,12.02
2023-05-08T06:14:37.516Z,12.48
2023-05-08T06:17:05.342Z,11.32
2023-05-08T06:19:32.508Z,13.05
2023-05-08T06:21:59.311Z,11.55
2023-05-08T06:24:26.212Z,11.02
2023-05-08T06:26:52.920Z,13.38
2023-05-08T06:29:19.621Z,12.63
2023-05-08T06:31:46.491Z,13.35
2023-05-08T06:34:13.239Z,12.43
2023-05-08T06:36:40.024Z,11.40
2023-05-08T06:39:07.959Z,12.20
2023-05-08T06:41:35.059Z,11.43
2023-05-08T06:44:01.764Z,11.93
2023-05-08T06:46:29.929Z,10.38
2023-05-08T06:48:57.180Z,12.27
2023-05-08T06:51:23.958Z,11.23
2023-05-08T06:53:50.902Z,10.68
2023-05-08T06:56:17.829Z,11.30
2023-05-08T06:58:48.315Z,11.65
2023-05-08T07:01:23.896Z,10.93
2023-05-08T07:03:50.866Z,11.50
2023-05-08T07:06:17.541Z,10.43
2023-05-08T07:08:44.341Z,11.55
2023-05-08T07:11:11.117Z,11.68
2023-05-08T07:13:38.773Z,12.23
2023-05-08T07:16:12.126Z,10.65
2023-05-08T07:18:38.937Z,11.63
2023-05-08T07:21:05.737Z,10.23
2023-05-08T07:23:32.496Z,11.30
2023-05-08T07:25:59.666Z,10.25
2023-05-08T07:28:29.010Z,10.50
2023-05-08T07:30:56.493Z,10.55
2023-05-08T07:33:23.134Z,10.40
2023-05-08T07:35:49.893Z,12.07
2023-05-08T07:38:16.550Z,10.75
2023-05-08T07:40:43.571Z,10.82
2023-05-08T07:43:10.348Z,12.20
2023-05-08T07:45:37.112Z,11.38
2023-05-08T07:48:03.994Z,12.05
2023-05-08T07:50:31.340Z,10.68
2023-05-08T07:52:57.989Z,11.30
2023-05-08T07:55:24.723Z,12.25
2023-05-08T07:57:51.442Z,12.13
2023-05-08T08:00:18.299Z,11.35
2023-05-08T08:02:45.952Z,10.25
2023-05-08T08:05:13.245Z,12.15
2023-05-08T08:07:40.303Z,12.40
2023-05-08T08:10:07.810Z,12.55
2023-05-08T08:12:34.714Z,12.57
2023-05-08T08:15:01.438Z,12.80
2023-05-08T08:17:29.065Z,12.43
2023-05-08T08:19:56.383Z,13.00
2023-05-08T08:22:24.078Z,12.40
2023-05-08T08:24:53.187Z,13.52
2023-05-08T08:27:21.771Z,12.13
2023-05-08T08:29:48.508Z,13.60
2023-05-08T08:32:15.281Z,13.15
2023-05-08T08:34:42.391Z,13.57
2023-05-08T08:37:09.141Z,13.00
2023-05-08T08:39:35.947Z,13.80
2023-05-08T08:42:02.820Z,14.68
2023-05-08T08:44:30.212Z,17.27
2023-05-08T08:46:59.140Z,12.43
2023-05-08T08:49:31.564Z,12.73
2023-05-08T08:54:37.428Z,13.63
2023-05-08T08:57:09.356Z,12.48
2023-05-08T08:59:38.916Z,15.43
2023-05-08T09:02:15.048Z,16.05
2023-05-08T09:04:41.783Z,13.25
2023-05-08T09:07:09.106Z,12.55
2023-05-08T09:09:41.057Z,14.30
2023-05-08T09:12:08.169Z,14.43
2023-05-08T09:14:34.929Z,13.65
2023-05-08T09:17:02.104Z,13.45
2023-05-08T09:19:29.263Z,14.27
2023-05-08T09:22:00.943Z,15.38
2023-05-08T09:25:00.761Z,14.37
2023-05-08T09:27:28.932Z,13.43
2023-05-08T09:30:02.368Z,15.38
2023-05-08T09:32:30.661Z,15.32
2023-05-08T09:34:58.079Z,15.63
2023-05-08T09:37:26.017Z,16.70
2023-05-08T09:39:53.450Z,17.45
2023-05-08T09:42:20.821Z,14.90
2023-05-08T09:44:52.167Z,16.70
2023-05-08T09:47:23.941Z,16.73
2023-05-08T09:50:08.824Z,14.32
2023-05-08T09:52:37.434Z,14.60
2023-05-08T09:55:07.064Z,17.20
2023-05-08T09:57:38.533Z,16.35
2023-05-08T10:00:14.827Z,14.43
2023-05-08T10:02:53.513Z,16.45
2023-05-08T10:05:32.225Z,14.25
2023-05-08T10:08:17.173Z,15.27
2023-05-08T10:10:43.918Z,14.23
2023-05-08T10:13:10.699Z,15.50
2023-05-08T10:15:41.437Z,16.30
2023-05-08T10:18:09.347Z,15.60
2023-05-08T10:20:39.912Z,15.38
2023-05-08T10:23:14.639Z,14.85
2023-05-08T10:25:47.149Z,17.33
2023-05-08T10:28:24.256Z,14.40
2023-05-08T10:30:51.980Z,17.20
2023-05-08T10:33:25.691Z,17.67
2023-05-08T10:35:53.083Z,17.42
2023-05-08T10:38:20.345Z,16.90
2023-05-08T10:40:48.127Z,14.90
2023-05-08T10:43:15.734Z,18.60
2023-05-08T10:45:43.281Z,15.77
2023-05-08T10:48:30.795Z,17.52
2023-05-08T10:51:06.149Z,17.13
2023-05-08T10:53:42.326Z,18.30
2023-05-08T10:56:09.751Z,20.75
2023-05-08T10:58:39.173Z,16.15
2023-05-08T11:01:08.851Z,17.35
2023-05-08T11:03:47.030Z,18.67
2023-05-08T11:06:14.973Z,17.38
2023-05-08T11:08:50.985Z,14.52
2023-05-08T11:11:30.407Z,16.85
2023-05-08T11:14:14.980Z,16.92
2023-05-08T11:16:54.041Z,17.48
2023-05-08T11:19:22.436Z,16.73
2023-05-08T11:22:11.614Z,17.95
2023-05-08T11:24:39.892Z,17.05
2023-05-08T11:27:07.422Z,18.60
2023-05-08T11:29:34.197Z,16.75
2023-05-08T11:32:01.254Z,15.43
2023-05-08T11:34:43.486Z,17.95
2023-05-08T11:39:47.823Z,19.98
2023-05-08T11:42:30.919Z,18.55
2023-05-08T11:45:13.609Z,19.48
2023-05-08T11:47:42.643Z,21.88
2023-05-08T11:50:11.304Z,21.10
2023-05-08T11:52:40.317Z,24.13
2023-05-08T11:55:09.212Z,19.90
2023-05-08T11:57:36.251Z,27.40
2023-05-08T12:00:10.891Z,22.80
2023-05-08T12:02:42.573Z,23.75
2023-05-08T12:05:11.020Z,22.65
2023-05-08T12:07:47.734Z,24.95
2023-05-08T12:10:16.685Z,22.52
2023-05-08T12:12:45.164Z,29.25
2023-05-08T12:15:13.998Z,24.60
2023-05-08T12:17:41.617Z,20.25
2023-05-08T12:20:17.583Z,22.55
2023-05-08T12:22:52.368Z,18.40
2023-05-08T12:25:19.504Z,25.83
2023-05-08T12:27:46.471Z,22.42
2023-05-08T12:30:14.924Z,20.50
2023-05-08T12:32:43.651Z,21.75
2023-05-08T12:35:12.129Z,24.13
2023-05-08T12:37:39.644Z,23.23
2023-05-08T12:40:07.501Z,19.10
2023-05-08T12:42:50.903Z,16.10
2023-05-08T12:45:28.773Z,16.83
2023-05-08T12:48:01.460Z,16.48
2023-05-08T12:50:30.424Z,20.35
2023-05-08T12:53:06.318Z,18.90
2023-05-08T12:55:34.705Z,19.98
2023-05-08T12:58:01.629Z,18.45
2023-05-08T13:00:45.517Z,17.58
2023-05-08T13:03:14.324Z,18.63
2023-05-08T13:05:43.285Z,16.73
2023-05-08T13:08:13.581Z,18.40
2023-05-08T13:10:50.959Z,17.63
2023-05-08T13:13:19.847Z,20.13
2023-05-08T13:15:47.948Z,16.77
2023-05-08T13:18:15.581Z,15.98
2023-05-08T13:20:42.836Z,20.58
2023-05-08T13:23:10.118Z,14.77
2023-05-08T13:25:37.944Z,17.10
2023-05-08T13:28:05.704Z,13.95
2023-05-08T13:30:32.674Z,14.25
2023-05-08T13:32:59.564Z,16.55
2023-05-08T13:35:28.327Z,14.80
2023-05-08T13:37:56.191Z,20.55
2023-05-08T13:40:23.656Z,16.95
2023-05-08T13:42:51.206Z,18.20
2023-05-08T13:45:20.875Z,18.92
2023-05-08T13:47:49.121Z,14.63
2023-05-08T13:50:16.952Z,16.83
2023-05-08T13:52:43.645Z,16.10
2023-05-08T13:55:12.411Z,18.58
2023-05-08T13:57:39.845Z,19.35
2023-05-08T14:00:07.762Z,18.85
2023-05-08T14:02:34.753Z,17.55
2023-05-08T14:05:01.936Z,17.77
2023-05-08T14:07:30.161Z,14.38
2023-05-08T14:09:56.940Z,16.40
2023-05-08T14:12:23.882Z,14.60
2023-05-08T14:14:50.674Z,16.98
2023-05-08T14:17:17.564Z,18.98
2023-05-08T14:19:45.911Z,25.33
2023-05-08T14:22:12.718Z,25.17
2023-05-08T14:24:39.913Z,18.40
2023-05-08T14:27:07.121Z,15.70
2023-05-08T14:29:34.264Z,13.82
2023-05-08T14:32:02.683Z,17.02
2023-05-08T14:34:29.549Z,14.63
2023-05-08T14:36:56.246Z,16.60
2023-05-08T14:39:23.003Z,19.63
2023-05-08T14:42:10.404Z,19.13
2023-05-08T14:44:36.656Z,19.90
2023-05-08T14:47:03.812Z,19.98
2023-05-08T14:49:37.602Z,18.00
2023-05-08T14:52:06.659Z,20.88
2023-05-08T14:54:34.082Z,19.77
2023-05-08T14:57:04.796Z,19.20
2023-05-08T14:59:31.458Z,21.40
2023-05-08T15:01:58.111Z,21.40
2023-05-08T15:04:24.846Z,21.15
2023-05-08T15:06:51.775Z,23.75
2023-05-08T15:09:18.482Z,19.20
2023-05-08T15:11:45.417Z,22.83
2023-05-08T15:14:12.396Z,22.48
2023-05-08T15:16:39.132Z,20.73
2023-05-08T15:19:05.925Z,19.83
2023-05-08T15:21:32.630Z,21.83
2023-05-08T15:23:59.306Z,20.48
2023-05-08T15:26:26.026Z,20.52
2023-05-08T15:28:52.721Z,19.42
2023-05-08T15:31:19.452Z,19.15
2023-05-08T15:33:47.666Z,20.65
2023-05-08T15:36:14.789Z,21.25
2023-05-08T15:38:41.990Z,22.77
2023-05-08T15:41:14.768Z,24.58
2023-05-08T15:43:42.500Z,27.20
2023-05-08T15:46:09.654Z,26.30
2023-05-08T15:48:36.714Z,28.25
2023-05-08T15:51:03.741Z,28.48
2023-05-08T15:53:30.469Z,35.03
2023-05-08T15:55:57.520Z,33.97
2023-05-08T15:58:24.536Z,29.63
2023-05-08T16:00:51.415Z,30.83
2023-05-08T16:03:18.462Z,34.33
2023-05-08T16:05:45.568Z,34.65
2023-05-08T16:08:13.208Z,27.60
2023-05-08T16:10:41.385Z,33.38
2023-05-08T16:13:09.000Z,30.58
2023-05-08T16:15:35.974Z,31.20
2023-05-08T16:18:03.072Z,31.80
2023-05-08T16:20:30.270Z,33.53
2023-05-08T16:22:57.811Z,30.33
2023-05-08T16:25:26.084Z,28.27
2023-05-08T16:27:52.732Z,29.55
2023-05-08T16:30:19.683Z,28.58
2023-05-08T16:32:46.676Z,30.50
2023-05-08T16:35:14.170Z,29.45
2023-05-08T16:37:41.333Z,30.27
2023-05-08T16:40:08.701Z,30.77
2023-05-08T16:42:36.091Z,28.45
2023-05-08T16:45:06.755Z,30.63
2023-05-08T16:47:34.305Z,32.03
2023-05-08T16:50:01.361Z,32.33
2023-05-08T16:52:28.448Z,31.70
2023-05-08T16:54:55.217Z,30.80
2023-05-08T16:57:21.992Z,32.58
2023-05-08T16:59:48.687Z,31.35
2023-05-08T17:02:18.872Z,27.95
2023-05-08T17:04:47.215Z,29.05
2023-05-08T17:07:17.826Z,27.92
2023-05-08T17:09:45.804Z,26.10
2023-05-08T17:12:13.674Z,27.50
2023-05-08T17:14:40.720Z,26.60
2023-05-08T17:17:07.666Z,26.00
2023-05-08T17:19:34.596Z,23.98
2023-05-08T17:22:01.915Z,24.83
2023-05-08T17:24:32.635Z,24.30
2023-05-08T17:26:59.637Z,24.65
2023-05-08T17:29:26.437Z,27.42
2023-05-08T17:31:53.328Z,30.33
2023-05-08T17:34:22.674Z,30.08
2023-05-08T17:36:49.785Z,26.42
2023-05-08T17:39:19.693Z,32.53
2023-05-08T17:41:46.812Z,27.92
2023-05-08T17:44:13.754Z,28.20
2023-05-08T17:46:40.787Z,28.55
2023-05-08T17:49:07.840Z,28.38
2023-05-08T17:51:34.629Z,29.17
2023-05-08T17:54:01.566Z,29.90
2023-05-08T17:58:55.638Z,28.33
2023-05-08T18:01:22.710Z,30.00
2023-05-08T18:03:49.687Z,31.70
2023-05-08T18:06:17.919Z,33.08
2023-05-08T18:08:45.609Z,29.20
2023-05-08T18:11:20.616Z,32.10
2023-05-08T18:13:47.789Z,38.22
2023-05-08T18:16:15.980Z,34.80
2023-05-08T18:18:42.771Z,33.53
2023-05-08T18:21:09.619Z,35.55
2023-05-08T18:23:36.722Z,36.65
2023-05-08T18:26:03.767Z,36.55
2023-05-08T18:28:30.738Z,37.53
2023-05-08T18:30:57.607Z,30.05
2023-05-08T18:33:24.606Z,29.77
2023-05-08T18:35:51.611Z,20.45
2023-05-08T18:38:18.481Z,19.58
2023-05-08T18:40:45.728Z,19.08
2023-05-08T18:43:12.581Z,18.90
2023-05-08T18:45:42.238Z,15.32
2023-05-08T18:48:09.595Z,15.88
2023-05-08T18:50:36.473Z,13.82
2023-05-08T18:53:03.263Z,12.70
2023-05-08T18:55:29.952Z,12.70
2023-05-08T18:57:56.709Z,12.63
2023-05-08T19:00:23.567Z,13.88
2023-05-08T19:02:50.483Z,12.63
2023-05-08T19:05:17.791Z,12.52
2023-05-08T19:07:45.396Z,12.70
2023-05-08T19:10:12.374Z,11.95
2023-05-08T19:12:39.676Z,11.40
2023-05-08T19:15:09.184Z,11.35
2023-05-08T19:17:38.109Z,11.57
2023-05-08T19:20:05.571Z,10.50
2023-05-08T19:22:33.855Z,13.05
2023-05-08T19:25:03.295Z,12.32
2023-05-08T19:27:32.001Z,12.10
2023-05-08T19:29:58.845Z,11.80
2023-05-08T19:32:25.729Z,12.48
2023-05-08T19:34:53.479Z,11.43
2023-05-08T19:37:20.186Z,11.85
2023-05-08T19:39:47.110Z,12.65
2023-05-08T19:42:13.848Z,12.32
2023-05-08T19:44:40.761Z,12.63
2023-05-08T19:47:07.610Z,13.70
2023-05-08T19:49:34.287Z,11.10
2023-05-08T19:52:01.021Z,12.50
2023-05-08T19:54:29.696Z,12.93
2023-05-08T19:56:56.909Z,11.43
2023-05-08T19:59:23.661Z,11.30
2023-05-08T20:01:50.775Z,13.52
2023-05-08T20:04:17.629Z,13.30
2023-05-08T20:06:44.512Z,14.38
2023-05-08T20:09:11.357Z,12.40
2023-05-08T20:11:38.307Z,13.82
2023-05-08T20:14:05.242Z,13.23
2023-05-08T20:16:32.184Z,15.75
2023-05-08T20:18:59.270Z,14.82
2023-05-08T20:21:26.585Z,13.30
2023-05-08T20:23:53.298Z,15.98
2023-05-08T20:26:20.030Z,14.60
2023-05-08T20:28:46.755Z,13.52
2023-05-08T20:31:13.470Z,15.48
2023-05-08T20:33:40.142Z,13.77
2023-05-08T20:36:06.982Z,16.23
2023-05-08T20:38:33.737Z,13.27
2023-05-08T20:41:01.335Z,14.27
2023-05-08T20:43:28.364Z,12.98
2023-05-08T20:45:55.221Z,14.25
2023-05-08T20:48:22.175Z,14.55
2023-05-08T20:50:48.993Z,17.30
2023-05-08T20:53:16.212Z,14.77
2023-05-08T20:55:43.475Z,14.15
2023-05-08T20:58:10.541Z,15.43
2023-05-08T21:00:37.293Z,15.32
2023-05-08T21:03:04.021Z,17.27
2023-05-08T21:05:31.026Z,15.45
2023-05-08T21:08:02.278Z,15.93
2023-05-08T21:10:31.111Z,15.82
2023-05-08T21:12:57.947Z,15.43
2023-05-08T21:15:24.763Z,15.85
2023-05-08T21:17:51.680Z,16.10
2023-05-08T21:20:18.743Z,15.77
2023-05-08T21:22:46.537Z,16.45
2023-05-08T21:25:15.232Z,15.88
2023-05-08T21:27:44.881Z,17.33
2023-05-08T21:30:15.369Z,16.92
2023-05-08T21:32:43.778Z,20.08
2023-05-08T21:35:12.085Z,17.95
2023-05-08T21:37:39.577Z,20.85
2023-05-08T21:40:06.926Z,18.42
2023-05-08T21:42:33.676Z,17.27
2023-05-08T21:45:00.795Z,16.65
2023-05-08T21:47:28.677Z,16.13
2023-05-08T21:49:55.553Z,17.65
2023-05-08T21:52:22.645Z,18.38
2023-05-08T21:54:50.570Z,18.55
2023-05-08T21:57:17.688Z,16.45
2023-05-08T21:59:44.700Z,15.75
2023-05-08T22:02:11.664Z,14.70
2023-05-08T22:04:38.542Z,15.98
2023-05-08T22:07:05.546Z,14.30
2023-05-08T22:09:32.344Z,15.05
2023-05-08T22:11:59.033Z,13.75
2023-05-08T22:14:25.709Z,12.25
2023-05-08T22:16:52.974Z,11.85
2023-05-08T22:19:19.906Z,11.95
2023-05-08T22:21:46.680Z,12.38
2023-05-08T22:24:15.050Z,11.45
2023-05-08T22:26:41.883Z,11.80
2023-05-08T22:29:08.669Z,13.55
2023-05-08T22:31:35.850Z,12.27
2023-05-08T22:34:02.652Z,11.00
2023-05-08T22:36:29.520Z,10.75
2023-05-08T22:38:56.681Z,11.68
2023-05-08T22:41:40.716Z,10.63
2023-05-08T22:48:13.117Z,11.52
2023-05-08T22:50:39.926Z,10.57
2023-05-08T22:53:08.117Z,10.85
2023-05-08T22:55:35.500Z,11.63
2023-05-08T22:58:02.417Z,10.10
2023-05-08T23:00:29.370Z,12.75
2023-05-08T23:02:56.584Z,12.43
2023-05-08T23:05:23.699Z,10.00
2023-05-08T23:07:50.417Z,9.43
2023-05-08T23:10:17.336Z,9.18
2023-05-08T23:12:44.243Z,8.73
2023-05-08T23:15:11.674Z,10.90
2023-05-08T23:17:38.683Z,9.98
2023-05-08T23:20:06.332Z,9.50
2023-05-08T23:22:33.036Z,8.63
2023-05-08T23:24:59.706Z,9.25
2023-05-08T23:27:26.356Z,10.13
2023-05-08T23:29:53.054Z,8.23
2023-05-08T23:32:19.838Z,8.73
2023-05-08T23:34:46.715Z,10.55
2023-05-08T23:37:13.632Z,12.77
2023-05-08T23:39:41.207Z,10.57
2023-05-08T23:42:08.558Z,9.13
2023-05-08T23:44:35.816Z,9.85
2023-05-08T23:47:02.543Z,8.32
2023-05-08T23:49:29.253Z,9.90
2023-05-08T23:51:56.111Z,10.18
2023-05-08T23:54:22.740Z,9.02
2023-05-08T23:56:49.463Z,10.30
2023-05-08T23:59:16.395Z,10.70
